Time;durP1;ratioP1;P1;durP2;ratioP2;P2;SDS_P1;SDS_P2;PMS_P1;PMS_P2;Temp;Humidity;BMP_temperature;BMP_pressure;BME280_temperature;BME280_humidity;BME280_pressure;Samples;Min_cycle;Max_cycle;Signal;HPM_P1;HPM_P2
2022/06/26 00:01:50;;;;;;;14.07;6.10;;;19.50;99.90;;;;;;4994737;28;20181;-86
2022/06/26 00:04:16;;;;;;;9.73;6.10;;;19.50;99.90;;;;;;4994628;28;20674;-86
2022/06/26 00:06:42;;;;;;;7.87;6.27;;;19.60;99.90;;;;;;4994209;28;20251;-86
2022/06/26 00:09:08;;;;;;;7.13;6.43;;;19.50;99.90;;;;;;4994300;28;20679;-86
2022/06/26 00:11:33;;;;;;;7.30;5.93;;;19.50;99.90;;;;;;4994310;28;20262;-86
2022/06/26 00:13:59;;;;;;;8.40;6.70;;;19.50;99.90;;;;;;4994247;28;20296;-87
2022/06/26 00:16:25;;;;;;;9.57;7.17;;;19.50;99.90;;;;;;4994015;28;20177;-87
2022/06/26 00:18:51;;;;;;;8.73;7.60;;;19.50;99.90;;;;;;4993786;28;20480;-86
2022/06/26 00:21:17;;;;;;;10.10;7.10;;;19.50;99.90;;;;;;4994235;28;20184;-84
2022/06/26 00:23:42;;;;;;;9.40;7.30;;;19.50;99.90;;;;;;4994044;28;20660;-84
2022/06/26 00:26:08;;;;;;;11.60;7.90;;;19.50;99.90;;;;;;4994054;28;20187;-84
2022/06/26 00:28:34;;;;;;;9.90;7.77;;;19.50;99.90;;;;;;4994065;28;20205;-84
2022/06/26 00:31:01;;;;;;;9.97;7.80;;;19.50;99.90;;;;;;4994268;28;20184;-84
2022/06/26 00:33:27;;;;;;;9.40;6.50;;;19.40;99.90;;;;;;4994098;28;20238;-84
2022/06/26 00:35:53;;;;;;;9.10;7.10;;;19.30;99.90;;;;;;4993897;28;20455;-85
2022/06/26 00:38:19;;;;;;;8.80;7.00;;;19.30;99.90;;;;;;4993862;28;20928;-84
2022/06/26 00:40:48;;;;;;;11.17;7.50;;;19.30;99.90;;;;;;4994045;28;20416;-85
2022/06/26 00:43:14;;;;;;;11.77;9.03;;;19.20;99.90;;;;;;4994195;28;20224;-85
2022/06/26 00:45:40;;;;;;;8.30;6.67;;;19.20;99.90;;;;;;4993804;28;20516;-84
2022/06/26 00:48:06;;;;;;;9.70;7.03;;;19.20;99.90;;;;;;4993901;28;20211;-84
2022/06/26 00:50:32;;;;;;;7.10;6.37;;;19.20;99.90;;;;;;4993972;28;20558;-85
2022/06/26 00:52:58;;;;;;;7.77;6.97;;;19.20;99.90;;;;;;4994112;28;20208;-85
2022/06/26 00:55:27;;;;;;;11.07;7.00;;;19.20;99.90;;;;;;4993912;28;20525;-85
2022/06/26 00:57:53;;;;;;;9.90;6.57;;;19.20;99.90;;;;;;4993996;28;20224;-85
2022/06/26 01:00:20;;;;;;;11.67;8.03;;;19.10;99.90;;;;;;5026706;22;20490;-85
2022/06/26 01:02:46;;;;;;;10.90;6.80;;;19.10;99.90;;;;;;5013924;28;20330;-85
2022/06/26 01:05:12;;;;;;;9.50;6.30;;;19.10;99.90;;;;;;5013800;28;20419;-84
2022/06/26 01:07:38;;;;;;;9.20;6.30;;;19.10;99.90;;;;;;5031217;28;20415;-84
2022/06/26 01:10:04;;;;;;;8.53;6.60;;;19.10;99.90;;;;;;5031456;28;20702;-84
2022/06/26 01:12:30;;;;;;;9.30;6.00;;;19.10;99.90;;;;;;5031595;28;20407;-85
2022/06/26 01:14:56;;;;;;;8.67;6.33;;;19.00;99.90;;;;;;5031517;28;20473;-84
2022/06/26 01:17:22;;;;;;;10.37;7.47;;;19.00;99.90;;;;;;5013348;28;20208;-84
2022/06/26 01:19:48;;;;;;;8.40;6.50;;;19.00;99.90;;;;;;5013640;28;20941;-85
2022/06/26 01:22:14;;;;;;;8.67;7.20;;;19.00;99.90;;;;;;5013696;28;20176;-86
2022/06/26 01:24:39;;;;;;;11.60;7.60;;;18.90;99.90;;;;;;5013791;28;20176;-84
2022/06/26 01:27:05;;;;;;;7.67;6.50;;;18.90;99.90;;;;;;5030871;28;20204;-84
2022/06/26 01:29:31;;;;;;;8.67;6.10;;;19.00;99.90;;;;;;5013555;28;20207;-85
2022/06/26 01:31:56;;;;;;;7.40;6.20;;;19.00;99.90;;;;;;5015835;28;20938;-85
2022/06/26 01:34:22;;;;;;;7.80;6.70;;;19.00;99.90;;;;;;5017055;28;20188;-85
2022/06/26 01:36:48;;;;;;;11.30;6.87;;;18.90;99.90;;;;;;5016323;28;20180;-85
2022/06/26 01:39:13;;;;;;;9.97;6.73;;;18.90;99.90;;;;;;5016671;28;20664;-84
2022/06/26 01:41:39;;;;;;;8.07;6.40;;;18.80;99.90;;;;;;5016675;28;20192;-85
2022/06/26 01:44:07;;;;;;;11.10;7.00;;;18.80;99.90;;;;;;5016221;28;20242;-85
2022/06/26 01:46:34;;;;;;;15.73;6.90;;;18.80;99.90;;;;;;5015998;28;20196;-85
2022/06/26 01:48:59;;;;;;;11.30;6.73;;;18.70;99.90;;;;;;5034458;28;20426;-85
2022/06/26 01:51:25;;;;;;;8.90;6.20;;;18.70;99.90;;;;;;5016681;28;20427;-84
2022/06/26 01:53:51;;;;;;;11.20;6.80;;;18.70;99.90;;;;;;5016748;28;20258;-85
2022/06/26 01:56:16;;;;;;;10.80;7.30;;;18.70;99.90;;;;;;5016234;28;20206;-85
2022/06/26 01:58:42;;;;;;;11.70;7.17;;;18.70;99.90;;;;;;5016552;28;20465;-85
2022/06/26 02:01:08;;;;;;;9.17;6.67;;;18.70;99.90;;;;;;5016407;28;20222;-83
2022/06/26 02:03:34;;;;;;;9.37;7.07;;;18.80;99.90;;;;;;5016423;28;20242;-84
2022/06/26 02:06:00;;;;;;;8.20;6.60;;;18.80;99.90;;;;;;5033888;28;20457;-84
2022/06/26 02:08:25;;;;;;;9.07;7.50;;;18.80;99.90;;;;;;5016383;28;20437;-85
2022/06/26 02:13:42;;;;;;;8.23;6.93;;;18.90;99.90;;;;;;5034519;28;20219;-85
2022/06/26 02:16:30;;;;;;;7.00;6.20;;;19.00;99.90;;;;;;5016044;28;20445;-84
2022/06/26 02:18:57;;;;;;;10.03;6.97;;;19.00;99.90;;;;;;5016201;28;20494;-85
2022/06/26 02:21:27;;;;;;;8.80;6.70;;;19.00;99.90;;;;;;5016158;28;20429;-85
2022/06/26 02:23:55;;;;;;;10.80;7.97;;;19.10;99.90;;;;;;5016173;28;20445;-84
2022/06/26 02:26:22;;;;;;;10.60;8.57;;;19.10;99.90;;;;;;5015913;28;20439;-85
2022/06/26 02:28:48;;;;;;;9.93;7.70;;;19.20;99.90;;;;;;5033797;28;20430;-85
2022/06/26 02:31:14;;;;;;;11.73;7.80;;;19.20;99.90;;;;;;5015940;28;20443;-85
2022/06/26 02:33:40;;;;;;;8.23;7.33;;;19.20;99.90;;;;;;5033731;28;20434;-85
2022/06/26 02:36:07;;;;;;;10.87;7.63;;;19.20;99.90;;;;;;5015768;28;20997;-85
2022/06/26 02:38:34;;;;;;;10.10;8.20;;;19.30;99.90;;;;;;5015669;28;20306;-84
2022/06/26 02:41:00;;;;;;;8.73;7.07;;;19.30;99.90;;;;;;5033544;28;20435;-85
2022/06/26 02:43:26;;;;;;;11.07;9.00;;;19.30;99.90;;;;;;5015513;28;20510;-85
2022/06/26 02:45:53;;;;;;;9.03;6.83;;;19.40;99.90;;;;;;5015512;28;20988;-85
2022/06/26 02:48:20;;;;;;;9.03;7.37;;;19.30;99.90;;;;;;5015584;28;20795;-84
2022/06/26 02:50:46;;;;;;;13.37;9.00;;;19.30;99.90;;;;;;5015779;28;20450;-85
2022/06/26 02:53:13;;;;;;;11.80;9.27;;;19.30;99.90;;;;;;5015653;28;20521;-85
2022/06/26 02:55:39;;;;;;;9.80;7.97;;;19.30;99.90;;;;;;5015349;28;20518;-85
2022/06/26 02:58:04;;;;;;;13.43;8.60;;;19.30;99.90;;;;;;5015503;28;20945;-85
2022/06/26 03:00:30;;;;;;;9.90;7.83;;;19.30;99.90;;;;;;5015350;28;20227;-84
2022/06/26 03:02:56;;;;;;;10.10;8.10;;;19.30;99.90;;;;;;5015686;28;20316;-87
2022/06/26 03:05:21;;;;;;;13.73;9.47;;;19.40;99.90;;;;;;5015460;28;20674;-87
2022/06/26 03:07:47;;;;;;;12.03;9.40;;;19.40;99.90;;;;;;5015002;28;20188;-87
2022/06/26 03:10:13;;;;;;;11.70;9.30;;;19.30;99.90;;;;;;5032995;28;20290;-87
2022/06/26 03:12:46;;;;;;;14.47;8.70;;;19.30;99.90;;;;;;5015018;28;20261;-88
2022/06/26 03:15:12;;;;;;;12.00;8.93;;;19.30;99.90;;;;;;5033010;28;20186;-86
2022/06/26 03:17:37;;;;;;;12.37;10.07;;;19.30;99.90;;;;;;5014566;28;20467;-88
2022/06/26 03:20:06;;;;;;;11.90;9.37;;;19.20;99.90;;;;;;5031645;28;20447;-88
2022/06/26 03:22:31;;;;;;;11.70;8.37;;;19.20;99.90;;;;;;5015330;28;20546;-85
2022/06/26 03:24:57;;;;;;;13.53;9.53;;;19.30;99.90;;;;;;5014971;28;20451;-84
2022/06/26 03:27:22;;;;;;;11.77;9.27;;;19.30;99.90;;;;;;5014796;28;20198;-84
2022/06/26 03:29:48;;;;;;;13.67;9.37;;;19.30;99.90;;;;;;5014831;28;20212;-84
2022/06/26 03:32:13;;;;;;;9.37;7.67;;;19.20;99.90;;;;;;5032733;28;20192;-85
2022/06/26 03:34:39;;;;;;;9.93;7.10;;;19.20;99.90;;;;;;5014916;28;20211;-85
2022/06/26 03:37:05;;;;;;;11.03;7.30;;;19.20;99.90;;;;;;5032273;28;20235;-85
2022/06/26 03:39:30;;;;;;;9.00;6.23;;;19.10;99.90;;;;;;5014601;28;20254;-84
2022/06/26 03:42:02;;;;;;;9.43;6.03;;;19.10;99.90;;;;;;5014850;28;20456;-85
2022/06/26 03:44:29;;;;;;;11.00;5.33;;;19.10;99.90;;;;;;5014694;28;20267;-85
2022/06/26 03:46:56;;;;;;;6.53;5.00;;;19.00;99.90;;;;;;5014401;28;20450;-84
2022/06/26 03:49:22;;;;;;;5.40;3.83;;;18.90;99.90;;;;;;5014571;28;20439;-85
2022/06/26 03:51:48;;;;;;;6.07;4.63;;;18.90;99.90;;;;;;5014836;28;21045;-85
2022/06/26 03:54:14;;;;;;;8.53;4.83;;;18.90;99.90;;;;;;5013985;28;20263;-85
2022/06/26 03:56:40;;;;;;;7.80;5.20;;;18.80;99.90;;;;;;5014221;28;20441;-85
2022/06/26 03:59:05;;;;;;;6.70;3.57;;;18.80;99.90;;;;;;5031984;28;20704;-85
2022/06/26 04:01:31;;;;;;;5.90;4.00;;;18.80;99.90;;;;;;5014590;28;20435;-84
2022/06/26 04:03:57;;;;;;;7.30;4.33;;;18.80;99.90;;;;;;5032200;28;20173;-84
2022/06/26 04:06:23;;;;;;;8.50;4.10;;;18.80;99.90;;;;;;5014208;28;20184;-84
2022/06/26 04:08:48;;;;;;;7.27;5.20;;;18.80;99.90;;;;;;5032078;28;20942;-85
2022/06/26 04:11:15;;;;;;;6.57;3.83;;;18.80;99.90;;;;;;5014427;28;20242;-84
2022/06/26 04:13:42;;;;;;;11.70;4.17;;;18.90;99.90;;;;;;5018366;28;20169;-83
2022/06/26 04:16:07;;;;;;;6.17;3.70;;;18.90;99.90;;;;;;5029686;28;20446;-84
2022/06/26 04:18:34;;;;;;;5.50;3.97;;;18.80;99.90;;;;;;5033182;28;20455;-84
2022/06/26 04:20:59;;;;;;;6.43;3.83;;;18.80;99.90;;;;;;5015546;28;20508;-84
2022/06/26 04:23:25;;;;;;;7.80;3.90;;;18.80;99.90;;;;;;5015339;28;20415;-84
2022/06/26 04:25:51;;;;;;;4.60;3.43;;;18.90;99.90;;;;;;5031849;28;20173;-85
2022/06/26 04:28:16;;;;;;;4.70;3.03;;;18.80;99.90;;;;;;5014499;28;20267;-85
2022/06/26 04:30:42;;;;;;;6.57;3.10;;;18.90;99.90;;;;;;5014290;28;20676;-84
2022/06/26 04:33:08;;;;;;;8.17;3.30;;;18.90;99.90;;;;;;5014349;28;20220;-84
2022/06/26 04:35:36;;;;;;;6.40;3.40;;;18.90;99.90;;;;;;5014258;28;20188;-85
2022/06/26 04:38:02;;;;;;;5.13;2.77;;;19.00;99.90;;;;;;5014137;28;20346;-85
2022/06/26 04:40:29;;;;;;;6.47;3.97;;;19.00;99.90;;;;;;5014139;28;20800;-85
2022/06/26 04:42:55;;;;;;;6.47;3.30;;;19.10;99.90;;;;;;5014461;28;20445;-85
2022/06/26 04:45:21;;;;;;;4.50;2.70;;;19.10;99.90;;;;;;5032889;28;20421;-85
2022/06/26 04:47:47;;;;;;;6.20;3.03;;;19.20;99.90;;;;;;5031794;28;20414;-86
2022/06/26 04:50:13;;;;;;;5.77;2.70;;;19.20;99.90;;;;;;5014446;28;20203;-87
2022/06/26 04:52:38;;;;;;;7.03;2.47;;;19.20;99.90;;;;;;5033525;28;20686;-82
2022/06/26 04:55:04;;;;;;;4.03;2.33;;;19.20;99.90;;;;;;5015637;28;20480;-84
2022/06/26 04:57:30;;;;;;;6.43;3.13;;;19.20;99.90;;;;;;5017102;28;20234;-84
2022/06/26 04:59:55;;;;;;;4.83;3.30;;;19.30;99.90;;;;;;5034802;28;21016;-84
2022/06/26 05:02:21;;;;;;;5.97;3.03;;;19.30;99.90;;;;;;5034750;28;20172;-84
2022/06/26 05:04:46;;;;;;;3.83;2.10;;;19.30;99.90;;;;;;5016773;28;20187;-83
2022/06/26 05:07:12;;;;;;;4.37;2.70;;;19.20;99.90;;;;;;5019598;28;20238;-84
2022/06/26 05:09:38;;;;;;;3.47;2.70;;;19.20;99.90;;;;;;5020418;28;20210;-84
2022/06/26 05:12:04;;;;;;;4.07;2.50;;;19.20;99.90;;;;;;5038473;28;20181;-83
2022/06/26 05:14:29;;;;;;;4.50;2.70;;;19.20;99.90;;;;;;5019903;28;20295;-82
2022/06/26 05:16:55;;;;;;;5.13;2.40;;;19.20;99.90;;;;;;5019222;28;20946;-82
2022/06/26 05:19:20;;;;;;;3.13;2.20;;;19.20;99.90;;;;;;5019644;28;20200;-83
2022/06/26 05:21:46;;;;;;;6.20;2.60;;;19.20;99.90;;;;;;5018986;28;20176;-84
2022/06/26 05:24:12;;;;;;;5.87;2.93;;;19.20;99.90;;;;;;5037028;28;20271;-83
2022/06/26 05:26:39;;;;;;;3.80;2.30;;;19.30;99.90;;;;;;5036188;28;20173;-83
2022/06/26 05:29:05;;;;;;;3.97;2.40;;;19.30;99.90;;;;;;5018322;28;20185;-85
2022/06/26 05:31:30;;;;;;;5.70;2.40;;;19.30;99.90;;;;;;5018819;28;20909;-84
2022/06/26 05:33:56;;;;;;;5.50;2.90;;;19.30;99.90;;;;;;5018471;28;20450;-85
2022/06/26 05:36:22;;;;;;;4.47;2.70;;;19.30;99.90;;;;;;5018359;28;20564;-82
2022/06/26 05:38:47;;;;;;;3.40;2.30;;;19.40;99.90;;;;;;5036132;28;20219;-83
2022/06/26 05:41:13;;;;;;;5.00;2.87;;;19.40;99.90;;;;;;5036026;28;20189;-83
2022/06/26 05:43:39;;;;;;;3.90;2.47;;;19.40;99.90;;;;;;5036408;28;20203;-84
2022/06/26 05:46:04;;;;;;;4.17;2.20;;;19.30;99.90;;;;;;5018714;28;20180;-82
2022/06/26 05:48:30;;;;;;;5.13;2.23;;;19.20;99.90;;;;;;5018806;28;20234;-83
2022/06/26 05:50:56;;;;;;;4.73;2.40;;;19.20;99.90;;;;;;5036964;28;20207;-82
2022/06/26 05:53:25;;;;;;;3.60;2.17;;;19.10;99.90;;;;;;5036463;28;20552;-83
2022/06/26 05:55:50;;;;;;;3.20;1.93;;;19.10;99.90;;;;;;5036399;28;20415;-83
2022/06/26 05:58:16;;;;;;;4.83;2.17;;;19.10;99.90;;;;;;5017775;28;20520;-83
2022/06/26 06:00:42;;;;;;;4.73;2.30;;;19.10;99.90;;;;;;5035648;28;20219;-82
2022/06/26 06:03:07;;;;;;;4.50;2.73;;;19.10;99.90;;;;;;5035959;28;20655;-83
2022/06/26 06:05:34;;;;;;;4.27;2.27;;;19.10;99.90;;;;;;5035771;28;20259;-82
2022/06/26 06:08:00;;;;;;;6.73;2.27;;;19.20;99.90;;;;;;5017734;28;20514;-82
2022/06/26 06:10:26;;;;;;;3.33;1.87;;;19.20;99.90;;;;;;5017401;28;21026;-84
2022/06/26 06:12:52;;;;;;;3.70;2.00;;;19.20;99.90;;;;;;5017410;28;21017;-84
2022/06/26 06:15:19;;;;;;;5.00;2.23;;;19.20;99.90;;;;;;5018076;28;20430;-82
2022/06/26 06:17:45;;;;;;;3.90;1.87;;;19.30;99.90;;;;;;5016555;28;20988;-83
2022/06/26 06:20:15;;;;;;;5.17;2.87;;;19.40;99.90;;;;;;5017226;28;20443;-83
2022/06/26 06:22:44;;;;;;;3.20;1.63;;;19.40;99.90;;;;;;5016961;28;20830;-83
2022/06/26 06:25:10;;;;;;;4.50;2.13;;;19.50;99.90;;;;;;5017216;28;20415;-83
2022/06/26 06:27:37;;;;;;;3.50;2.30;;;19.50;99.90;;;;;;5016917;28;20427;-83
2022/06/26 06:30:05;;;;;;;4.40;2.13;;;19.50;99.90;;;;;;5017170;28;21182;-83
2022/06/26 06:32:30;;;;;;;3.17;2.30;;;19.60;99.90;;;;;;5034483;28;20461;-84
2022/06/26 06:34:56;;;;;;;4.27;2.20;;;19.60;99.90;;;;;;5034518;28;20419;-84
2022/06/26 06:37:21;;;;;;;3.90;2.10;;;19.70;99.90;;;;;;5015753;28;20212;-83
2022/06/26 06:39:47;;;;;;;4.30;2.13;;;19.70;99.90;;;;;;5016464;28;20201;-83
2022/06/26 06:42:13;;;;;;;3.30;2.83;;;19.70;99.90;;;;;;5016600;28;20180;-83
2022/06/26 06:44:38;;;;;;;4.03;1.90;;;19.80;99.90;;;;;;5034641;28;20199;-84
2022/06/26 06:47:05;;;;;;;4.27;2.40;;;19.80;99.90;;;;;;5015955;28;20185;-83
2022/06/26 06:49:30;;;;;;;3.50;1.97;;;19.90;99.90;;;;;;5033975;28;20196;-83
2022/06/26 06:51:56;;;;;;;3.10;1.93;;;20.00;99.90;;;;;;5016134;28;20760;-84
2022/06/26 06:54:22;;;;;;;5.53;2.17;;;20.00;99.90;;;;;;5016192;28;20191;-83
2022/06/26 06:56:48;;;;;;;3.73;2.13;;;20.30;99.90;;;;;;5015919;28;20427;-83
2022/06/26 06:59:14;;;;;;;3.93;2.67;;;20.50;99.90;;;;;;5016090;28;20310;-83
2022/06/26 07:01:40;;;;;;;3.13;1.70;;;20.80;99.90;;;;;;5144322;22;20603;-82
2022/06/26 07:04:07;;;;;;;2.80;1.70;;;20.90;99.90;;;;;;5033143;28;20499;-83
2022/06/26 07:06:32;;;;;;;7.00;2.50;;;20.90;99.90;;;;;;5034856;28;20176;-83
2022/06/26 07:08:58;;;;;;;6.20;2.37;;;20.90;99.90;;;;;;5037978;28;20498;-84
2022/06/26 07:11:24;;;;;;;3.60;1.90;;;20.90;99.90;;;;;;5037909;28;20264;-83
2022/06/26 07:13:49;;;;;;;3.27;1.90;;;20.90;99.90;;;;;;5037109;28;20176;-84
2022/06/26 07:16:15;;;;;;;2.70;1.80;;;21.00;99.90;;;;;;5037447;28;20210;-83
2022/06/26 07:18:41;;;;;;;3.93;1.90;;;21.10;99.90;;;;;;5037990;28;20270;-84
2022/06/26 07:21:07;;;;;;;3.47;1.83;;;21.10;99.90;;;;;;5037888;28;20598;-83
2022/06/26 07:23:33;;;;;;;3.10;2.00;;;21.20;99.90;;;;;;5037770;28;21020;-84
2022/06/26 07:25:59;;;;;;;6.80;2.30;;;21.40;99.90;;;;;;5037565;28;20443;-84
2022/06/26 07:28:24;;;;;;;3.83;1.70;;;21.70;99.90;;;;;;5035333;28;20184;-83
2022/06/26 07:30:52;;;;;;;3.33;1.67;;;22.10;99.90;;;;;;5035586;28;20196;-83
2022/06/26 07:36:02;;;;;;;4.50;1.97;;;22.40;99.90;;;;;;5037024;28;20984;-84
2022/06/26 07:38:28;;;;;;;7.63;2.33;;;22.10;99.90;;;;;;5036871;28;20466;-84
2022/06/26 07:40:53;;;;;;;4.83;2.33;;;22.10;99.90;;;;;;5035061;28;20196;-83
2022/06/26 07:43:19;;;;;;;3.83;2.23;;;22.10;99.90;;;;;;5032674;28;20198;-83
2022/06/26 07:45:44;;;;;;;4.00;1.70;;;22.00;99.90;;;;;;5032102;28;20659;-83
2022/06/26 07:48:10;;;;;;;3.07;1.80;;;22.10;99.90;;;;;;5032134;28;20192;-83
2022/06/26 07:50:36;;;;;;;4.20;2.37;;;22.10;99.90;;;;;;5031102;28;20200;-83
2022/06/26 07:53:02;;;;;;;4.40;1.77;;;22.20;99.90;;;;;;5032200;28;20690;-83
2022/06/26 07:55:27;;;;;;;3.40;1.80;;;22.40;99.90;;;;;;5032423;28;20222;-83
2022/06/26 07:57:53;;;;;;;3.00;1.50;;;22.70;99.90;;;;;;5030608;28;20203;-83
2022/06/26 08:00:19;;;;;;;3.43;2.27;;;23.10;99.90;;;;;;5031882;28;20763;-82
2022/06/26 08:02:44;;;;;;;6.37;1.80;;;23.40;99.90;;;;;;5032082;28;20914;-83
2022/06/26 08:05:11;;;;;;;3.17;1.70;;;23.40;99.90;;;;;;5031941;28;20200;-83
2022/06/26 08:07:37;;;;;;;3.70;1.87;;;23.30;99.90;;;;;;5031717;28;20176;-82
2022/06/26 08:10:03;;;;;;;2.73;1.67;;;22.90;99.90;;;;;;5031976;28;20434;-83
2022/06/26 08:12:28;;;;;;;2.77;1.50;;;22.70;99.90;;;;;;5033899;28;20465;-84
2022/06/26 08:14:54;;;;;;;3.47;1.60;;;22.70;99.90;;;;;;5036253;28;20423;-84
2022/06/26 08:17:20;;;;;;;4.63;2.07;;;22.60;99.90;;;;;;5035022;28;20200;-83
2022/06/26 08:19:47;;;;;;;2.80;1.70;;;22.80;99.90;;;;;;5035689;28;20168;-84
2022/06/26 08:22:13;;;;;;;4.10;1.90;;;23.40;99.90;;;;;;5033754;28;20181;-84
2022/06/26 08:24:41;;;;;;;3.80;1.67;;;23.40;99.90;;;;;;5034113;28;20437;-84
2022/06/26 08:27:10;;;;;;;3.67;1.63;;;23.20;99.90;;;;;;5034915;28;20255;-83
2022/06/26 08:29:37;;;;;;;2.50;1.40;;;23.00;99.90;;;;;;5035074;28;20930;-84
2022/06/26 08:32:03;;;;;;;3.07;1.80;;;23.10;99.90;;;;;;5017032;28;20430;-84
2022/06/26 08:34:29;;;;;;;2.80;1.60;;;23.20;99.90;;;;;;5035174;28;20411;-84
2022/06/26 08:36:55;;;;;;;3.00;1.60;;;23.50;99.90;;;;;;5034733;28;20416;-84
2022/06/26 08:39:22;;;;;;;4.57;1.80;;;23.50;99.90;;;;;;5034768;28;20212;-84
2022/06/26 08:41:51;;;;;;;3.63;1.60;;;23.50;99.90;;;;;;5038754;28;20431;-84
2022/06/26 08:44:16;;;;;;;5.60;2.27;;;23.70;99.90;;;;;;5037123;28;20411;-83
2022/06/26 08:46:44;;;;;;;4.03;1.70;;;24.60;99.90;;;;;;5036509;28;20415;-84
2022/06/26 08:49:12;;;;;;;4.60;1.70;;;26.60;99.90;;;;;;5038396;28;20176;-81
2022/06/26 08:51:41;;;;;;;3.67;1.70;;;28.40;99.90;;;;;;5036918;28;20470;-84
2022/06/26 08:54:09;;;;;;;3.53;1.70;;;29.30;99.90;;;;;;5038717;28;20498;-82
2022/06/26 08:56:39;;;;;;;3.60;1.93;;;28.40;99.90;;;;;;5037983;28;20446;-81
2022/06/26 08:59:05;;;;;;;5.67;2.33;;;27.70;99.90;;;;;;5038196;28;20469;-81
2022/06/26 09:01:30;;;;;;;3.50;1.83;;;27.40;99.90;;;;;;5038334;28;21060;-84
2022/06/26 09:03:56;;;;;;;3.67;2.20;;;27.60;99.90;;;;;;5038436;28;20241;-82
2022/06/26 09:06:22;;;;;;;2.87;1.80;;;29.10;99.90;;;;;;5038045;28;20180;-84
2022/06/26 09:08:50;;;;;;;2.97;2.10;;;30.40;99.90;;;;;;5037892;28;20176;-85
2022/06/26 09:11:20;;;;;;;3.30;2.13;;;30.20;98.60;;;;;;5038324;28;20588;-84
2022/06/26 09:13:47;;;;;;;3.50;2.43;;;29.50;99.90;;;;;;5038236;28;20415;-84
2022/06/26 09:16:14;;;;;;;3.10;2.37;;;28.60;99.90;;;;;;5037623;28;20414;-84
2022/06/26 09:18:41;;;;;;;3.97;2.80;;;28.20;99.90;;;;;;5037306;28;20470;-82
2022/06/26 09:21:08;;;;;;;3.40;2.40;;;28.60;99.90;;;;;;5035976;28;20481;-84
2022/06/26 09:23:36;;;;;;;3.10;2.40;;;30.10;99.90;;;;;;5037694;28;20411;-84
2022/06/26 09:26:03;;;;;;;3.90;2.00;;;32.10;96.70;;;;;;5036656;28;20415;-84
2022/06/26 09:28:30;;;;;;;4.77;2.03;;;32.60;93.30;;;;;;5038328;28;20426;-84
2022/06/26 09:31:00;;;;;;;5.07;2.30;;;33.40;87.30;;;;;;5038602;28;20462;-85
2022/06/26 09:33:30;;;;;;;2.60;1.77;;;34.70;84.50;;;;;;5038949;28;20476;-82
2022/06/26 09:35:57;;;;;;;3.90;1.93;;;;;;;;;;5038110;28;21024;-82
2022/06/26 09:38:28;;;;;;;3.33;1.73;;;36.80;64.90;;;;;;5038554;28;20828;-83
2022/06/26 09:41:07;;;;;;;2.87;1.73;;;37.20;60.80;;;;;;5038380;28;20427;-82
2022/06/26 09:43:43;;;;;;;2.47;1.40;;;37.10;56.80;;;;;;5038870;28;20410;-82
2022/06/26 09:46:16;;;;;;;3.03;1.70;;;37.20;54.80;;;;;;5037853;28;20890;-83
2022/06/26 09:48:42;;;;;;;3.30;1.83;;;36.80;54.60;;;;;;5036643;28;20998;-82
2022/06/26 09:51:10;;;;;;;3.37;1.77;;;35.60;55.60;;;;;;5036981;28;20430;-84
2022/06/26 09:53:36;;;;;;;3.23;2.27;;;34.10;57.60;;;;;;5034576;28;20430;-84
2022/06/26 09:56:03;;;;;;;3.60;2.20;;;32.50;59.00;;;;;;5036407;28;20473;-84
2022/06/26 09:58:30;;;;;;;4.50;2.50;;;31.60;63.60;;;;;;5036503;28;20462;-85
2022/06/26 10:06:30;;;;;;;3.33;2.20;;;29.90;67.70;;;;;;5035688;28;20410;-82
2022/06/26 10:08:57;;;;;;;4.13;2.53;;;28.80;72.80;;;;;;5035988;28;20423;-82
2022/06/26 10:11:27;;;;;;;3.37;2.40;;;28.10;80.70;;;;;;5034229;28;20439;-84
2022/06/26 10:13:56;;;;;;;3.63;2.07;;;27.30;83.10;;;;;;5035756;28;20423;-84
2022/06/26 10:16:31;;;;;;;2.60;1.90;;;27.00;88.80;;;;;;5035411;28;20443;-84
2022/06/26 10:18:56;;;;;;;3.50;2.10;;;26.60;90.90;;;;;;5034533;28;20989;-84
2022/06/26 10:21:22;;;;;;;3.10;2.10;;;26.80;93.90;;;;;;5036047;28;20442;-84
2022/06/26 10:23:48;;;;;;;3.00;2.10;;;27.30;94.30;;;;;;5034137;28;20184;-81
2022/06/26 10:26:15;;;;;;;3.37;2.03;;;28.30;92.40;;;;;;5034034;28;20555;-84
2022/06/26 10:29:02;;;;;;;2.70;1.80;;;29.80;88.70;;;;;;5034077;28;20242;-84
2022/06/26 10:31:49;;;;;;;4.77;1.90;;;30.50;84.20;;;;;;5034520;28;20441;-84
2022/06/26 10:34:19;;;;;;;3.93;2.03;;;30.40;83.80;;;;;;5033998;28;20422;-84
2022/06/26 10:36:57;;;;;;;3.47;2.37;;;30.00;86.30;;;;;;5034044;28;20445;-85
2022/06/26 10:39:23;;;;;;;3.40;2.10;;;29.60;87.00;;;;;;5034314;28;20462;-85
2022/06/26 10:44:45;;;;;;;2.80;1.67;;;28.10;88.30;;;;;;5034204;28;20473;-84
2022/06/26 10:47:16;;;;;;;5.30;2.10;;;27.70;89.90;;;;;;5032563;28;20419;-84
2022/06/26 10:49:51;;;;;;;2.97;1.63;;;27.50;92.30;;;;;;5034005;28;20426;-84
2022/06/26 10:52:28;;;;;;;2.97;1.83;;;27.20;91.50;;;;;;5033089;28;20419;-84
2022/06/26 10:54:54;;;;;;;2.90;1.90;;;26.80;93.30;;;;;;5032867;28;20426;-84
2022/06/26 10:57:31;;;;;;;3.17;2.23;;;26.50;96.00;;;;;;5033642;28;20769;-84
2022/06/26 10:59:58;;;;;;;3.83;2.00;;;26.20;96.30;;;;;;5034209;28;20426;-85
2022/06/26 11:02:25;;;;;;;4.10;1.97;;;26.00;99.50;;;;;;5034300;28;20407;-84
2022/06/26 11:04:51;;;;;;;3.10;1.83;;;25.90;99.90;;;;;;5034072;28;20403;-84
2022/06/26 11:07:20;;;;;;;3.90;2.20;;;25.80;99.90;;;;;;5032084;28;20502;-84
2022/06/26 11:09:45;;;;;;;4.60;2.40;;;25.70;99.90;;;;;;5032403;28;20176;-84
2022/06/26 11:12:13;;;;;;;3.30;2.70;;;25.60;99.90;;;;;;5034530;28;20403;-84
2022/06/26 11:14:39;;;;;;;3.33;2.07;;;25.30;99.90;;;;;;5033786;28;20171;-84
2022/06/26 11:17:07;;;;;;;4.10;1.80;;;25.30;99.90;;;;;;5033357;28;20411;-84
2022/06/26 11:20:46;;;;;;;4.57;2.00;;;25.30;99.90;;;;;;5033688;28;20310;-84
2022/06/26 11:22:26;;;;;;;3.53;1.93;;;25.20;99.90;;;;;;5033591;28;20809;-84
2022/06/26 11:24:53;;;;;;;2.80;1.80;;;25.20;99.90;;;;;;5032112;28;20423;-84
2022/06/26 11:27:23;;;;;;;3.63;1.73;;;25.20;99.90;;;;;;5033541;28;20415;-84
2022/06/26 11:29:49;;;;;;;2.67;1.80;;;25.20;99.90;;;;;;5031924;28;20488;-84
2022/06/26 11:32:14;;;;;;;3.17;2.23;;;25.10;99.90;;;;;;5033645;28;21200;-84
2022/06/26 11:34:50;;;;;;;4.20;2.53;;;24.90;99.90;;;;;;5033575;28;20730;-84
2022/06/26 11:37:16;;;;;;;3.03;1.73;;;24.70;99.90;;;;;;5033405;28;20183;-84
2022/06/26 11:39:43;;;;;;;3.30;1.93;;;24.60;99.90;;;;;;5033630;28;20411;-84
2022/06/26 11:42:23;;;;;;;3.07;1.90;;;24.30;99.90;;;;;;5031996;28;20212;-84
2022/06/26 11:44:51;;;;;;;3.23;1.93;;;24.10;99.90;;;;;;5033072;28;20394;-84
2022/06/26 11:47:17;;;;;;;3.83;1.83;;;23.90;99.90;;;;;;5031256;28;20423;-84
2022/06/26 11:49:42;;;;;;;5.60;2.10;;;23.80;99.90;;;;;;5031685;28;20410;-84
2022/06/26 11:52:09;;;;;;;4.60;2.10;;;23.60;99.90;;;;;;5031790;28;20506;-83
2022/06/26 11:54:35;;;;;;;3.77;2.33;;;23.40;99.90;;;;;;5033095;28;20247;-84
2022/06/26 11:57:05;;;;;;;3.20;1.90;;;23.10;99.90;;;;;;5032561;28;20411;-84
2022/06/26 11:59:31;;;;;;;4.73;1.93;;;22.90;99.90;;;;;;5031752;28;20463;-84
2022/06/26 12:01:57;;;;;;;3.17;1.90;;;22.80;99.90;;;;;;5031451;28;20466;-84
2022/06/26 12:04:22;;;;;;;3.33;2.13;;;22.90;99.90;;;;;;5032984;28;20652;-84
2022/06/26 12:06:50;;;;;;;3.47;1.67;;;22.90;99.90;;;;;;5031072;28;20172;-84
2022/06/26 12:09:23;;;;;;;3.17;1.97;;;22.90;99.90;;;;;;5032845;28;20658;-84
2022/06/26 12:11:51;;;;;;;3.63;1.80;;;22.80;99.90;;;;;;5031302;28;20590;-83
2022/06/26 12:14:19;;;;;;;5.80;4.10;;;22.90;99.90;;;;;;5030840;28;20455;-83
2022/06/26 12:16:47;;;;;;;3.50;2.07;;;22.70;99.90;;;;;;5030936;28;20418;-84
2022/06/26 12:19:13;;;;;;;3.57;2.10;;;22.60;99.90;;;;;;5031362;28;20832;-84
2022/06/26 12:21:39;;;;;;;3.57;2.30;;;22.50;99.90;;;;;;5032856;28;20438;-84
2022/06/26 12:24:11;;;;;;;4.93;2.10;;;22.40;99.90;;;;;;5032562;28;20415;-84
2022/06/26 12:26:38;;;;;;;3.33;1.97;;;22.20;99.90;;;;;;5032006;28;20542;-84
2022/06/26 12:29:10;;;;;;;3.60;2.23;;;22.10;99.90;;;;;;5032469;28;20972;-83
2022/06/26 12:31:36;;;;;;;7.97;1.90;;;21.90;99.90;;;;;;5032175;28;20435;-84
2022/06/26 12:34:04;;;;;;;4.73;2.10;;;21.80;99.90;;;;;;5032362;28;20418;-84
2022/06/26 12:36:30;;;;;;;3.80;2.30;;;21.70;99.90;;;;;;5030361;28;20430;-84
2022/06/26 12:38:56;;;;;;;4.00;2.40;;;21.50;99.90;;;;;;5032148;28;20465;-83
2022/06/26 12:41:22;;;;;;;2.50;1.87;;;21.50;99.90;;;;;;5032262;28;20435;-84
2022/06/26 12:43:51;;;;;;;3.70;2.10;;;21.30;99.90;;;;;;5030707;28;20422;-84
2022/06/26 12:46:17;;;;;;;2.60;1.70;;;21.20;99.90;;;;;;5030298;28;20176;-83
2022/06/26 12:48:43;;;;;;;3.70;2.03;;;21.20;99.90;;;;;;5031949;28;20464;-83
2022/06/26 12:51:10;;;;;;;3.00;1.70;;;21.10;99.90;;;;;;5031924;28;20435;-84
2022/06/26 12:53:36;;;;;;;4.40;1.97;;;21.00;99.90;;;;;;5032002;28;20422;-83
2022/06/26 12:56:02;;;;;;;4.73;2.10;;;21.00;99.90;;;;;;5031515;28;20468;-84
2022/06/26 12:58:30;;;;;;;3.40;2.00;;;21.00;99.90;;;;;;5032919;28;20541;-84